Aeroporto :
LOGIN :

Iscrizione | Disclaimer

   EN    FR    IT 

 










Sommario :    VFR   VFR Marginale   IFR   IFR Intensivo   IFR Molto Intensivo
Visibilità : 
Base nubi : 
>= 8 km
>= 3000ft
5 / 8 km
1000 / 3000 ft
1500m / 5 km
500 / 1000 ft
800 / 1500m
200 / 500 ft
< 800m
< 200 ft
Simboli :   Temporali  Nebbia  Neve Forte  Precipitazioni Forti  Vento > 20 kt
SIGMETs :   Varie  Temporali  Ghiacco  Turbolenza  Onda orograficha  Ceneri Vulcaniche






- Altitudine del aeroporto : 681 ft
- Codice IATA : LBA


EGNM - Leeds Bradford

METARs OBSOLETI :
  • 011620Z 22007KT 190V260 9999 FEW015 SCT029 15/11 Q1014
  • 012150Z 21009KT 180V240 9999 FEW015 SCT040 13/10 Q1015
  • 012120Z 22006KT 9999 -SHRA FEW015 SCT040 13/11 Q1015
  • 012050Z 22007KT 9999 7000SW -SHRA SCT040 13/10 Q1015
  • 012020Z 23008KT 9999 -SHRA SCT040 13/10 Q1014
  • 010550Z 27007KT 9999 -SHRA FEW008 SCT025 12/12 Q1012

TAF TAF EGNM
Valido dal 01 a 18 ore il 02 a 18 ore UTC


011654Z 0118/0218 20009KT 9999 SCT030
TEMPO 0121/0207 7000 RA SHRA BKN014
PROB30
TEMPO 0122/0202 4000 RADZ BKN006
PROB40
TEMPO 0123/0207 22016G26KT
PROB30
TEMPO 0202/0205 4000 +RA +SHRA BKN008
PROB40
TEMPO 0207/0218 7000 SHRA BKN014
ATIS : +44 113 250 9696 (x2489)



MetMap, La meteo Aeronautica in un colpo d'occhio ! - Copyright ORBIFLY Dicembre 2007 - Disclaimer

ORBIFLY MET'MAP TEAM :

Programmazione e sviluppo : Alexandra Zaïnal
Concezione : Baudouin d'Aumeries
Supporto tecnico e logistico : Manuel Goepfert
Aiuto : Marc-Olivier Méhu
Aiuto per la traduzione : Arnaldo La Scala




FONTI E CREDITI :

   NOAA